Hovedside
METAR-TAF:

METAR-TAF

Lufthavner :

Vardø, Norge

Vardø lufthavn

breddegrad: 70-21N, lengdegrad: 031-03E, høyde over havet: 12 m

Gjeldene værobservasjon

Denne rapporten ble laget for 55 minutter siden, klokken 06:50 UTC
Vind 17 kt fra Sør-sørvest
Temperatur -3°C
Luftfuktighet 63%
Trykk 1023 hPa
Sikt 10 km eller mer
ingen skyer under 1500 m og ingen bygeskyer

METAR: ENSS 240650Z 20017KT CAVOK M03/M09 Q1023 RMK WIND 500FT 22018KT

Tid: 09:45 (07:45 UTC)


TAF: fraværende

Værobservasjoner og værvarsel for over 4000 flyplasser (METAR- og TAF-rapporter).

Tilgjengelige stasjoner er representert av de røde og gule prikkene på kartet.

Hold musepekeren over prikken for å se navnet på stasjonen.

Klikk så for å se værobservasjoner og -varsler.

For å forandre kartet kan du klikke på den grønne knappen med svart kryss for å zoome inn, på den grønne knappen med strek for å zoome ut, eller på de grønne pilene for å se tilstøtende kart.


METAR-TAF: